createdAt,value
2023-02-13T00:00:53.242Z,102272.22
2023-02-13T00:03:23.225Z,102271.28
2023-02-13T00:05:51.124Z,102273.99
2023-02-13T00:08:18.979Z,102271.41
2023-02-13T00:10:47.996Z,102270.09
2023-02-13T00:13:16.297Z,102266.50
2023-02-13T00:15:44.094Z,102263.69
2023-02-13T00:18:11.798Z,102257.91
2023-02-13T00:20:39.460Z,102258.68
2023-02-13T00:23:07.089Z,102264.91
2023-02-13T00:25:34.740Z,102260.54
2023-02-13T00:28:02.463Z,102260.39
2023-02-13T00:30:30.260Z,102260.66
2023-02-13T00:32:57.906Z,102260.24
2023-02-13T00:35:25.720Z,102258.38
2023-02-13T00:37:53.653Z,102256.67
2023-02-13T00:40:25.277Z,102261.09
2023-02-13T00:42:53.618Z,102257.17
2023-02-13T00:45:21.474Z,102259.83
2023-02-13T00:47:49.218Z,102261.20
2023-02-13T00:50:16.978Z,102253.67
2023-02-13T00:52:44.593Z,102257.41
2023-02-13T00:55:13.912Z,102255.89
2023-02-13T00:57:41.553Z,102255.05
2023-02-13T01:00:09.748Z,102252.88
2023-02-13T01:02:37.462Z,102254.15
2023-02-13T01:05:06.958Z,102257.38
2023-02-13T01:07:34.651Z,102259.01
2023-02-13T01:10:02.547Z,102259.73
2023-02-13T01:12:30.372Z,102259.41
2023-02-13T01:14:58.024Z,102258.02
2023-02-13T01:17:25.706Z,102257.39
2023-02-13T01:19:55.361Z,102252.00
2023-02-13T01:22:23.872Z,102247.92
2023-02-13T01:24:51.515Z,102249.63
2023-02-13T01:27:19.278Z,102250.35
2023-02-13T01:29:46.972Z,102244.14
2023-02-13T01:32:14.923Z,102240.31
2023-02-13T01:34:42.708Z,102236.50
2023-02-13T01:37:12.326Z,102234.92
2023-02-13T01:39:40.321Z,102233.40
2023-02-13T01:42:22.619Z,102230.98
2023-02-13T01:44:50.328Z,102234.98
2023-02-13T01:47:25.210Z,102237.61
2023-02-13T01:50:02.351Z,102237.25
2023-02-13T01:52:30.251Z,102231.27
2023-02-13T01:54:57.899Z,102235.14
2023-02-13T01:57:29.386Z,102231.85
2023-02-13T02:00:13.808Z,102233.90
2023-02-13T02:02:52.194Z,102232.61
2023-02-13T02:05:24.381Z,102226.95
2023-02-13T02:07:53.905Z,102219.23
2023-02-13T02:10:23.571Z,102214.42
2023-02-13T02:13:08.169Z,102211.03
2023-02-13T02:15:36.197Z,102215.15
2023-02-13T02:18:09.764Z,102213.63
2023-02-13T02:20:43.496Z,102211.13
2023-02-13T02:23:34.256Z,102212.73
2023-02-13T02:26:09.374Z,102210.99
2023-02-13T02:29:11.214Z,102218.17
2023-02-13T02:32:10.066Z,102211.36
2023-02-13T02:34:55.928Z,102210.23
2023-02-13T02:37:42.460Z,102213.43
2023-02-13T02:40:26.313Z,102216.15
2023-02-13T02:43:17.752Z,102212.96
2023-02-13T02:46:06.015Z,102216.86
2023-02-13T02:49:16.177Z,102217.55
2023-02-13T02:51:59.413Z,102210.03
2023-02-13T02:55:01.420Z,102209.30
2023-02-13T02:57:51.851Z,102216.62
2023-02-13T03:00:42.827Z,102215.59
2023-02-13T03:03:41.873Z,102215.56
2023-02-13T03:06:16.072Z,102215.00
2023-02-13T03:09:05.008Z,102212.62
2023-02-13T03:11:51.754Z,102209.18
2023-02-13T03:14:20.757Z,102209.52
2023-02-13T03:17:07.365Z,102213.98
2023-02-13T03:19:57.623Z,102213.77
2023-02-13T03:22:48.582Z,102209.90
2023-02-13T03:25:38.423Z,102214.02
2023-02-13T03:28:26.311Z,102211.14
2023-02-13T03:31:01.860Z,102211.95
2023-02-13T03:33:55.047Z,102210.84
2023-02-13T03:37:10.847Z,102211.56
2023-02-13T03:40:03.658Z,102211.53
2023-02-13T03:42:42.983Z,102212.39
2023-02-13T03:45:52.833Z,102211.08
2023-02-13T03:48:43.989Z,102207.38
2023-02-13T03:51:16.423Z,102211.33
2023-02-13T03:53:46.220Z,102208.86
2023-02-13T03:56:34.688Z,102210.90
2023-02-13T03:59:16.648Z,102207.50
2023-02-13T04:01:56.838Z,102209.73
2023-02-13T04:04:35.265Z,102208.77
2023-02-13T04:07:05.122Z,102213.48
2023-02-13T04:09:37.656Z,102213.89
2023-02-13T04:12:19.691Z,102207.00
2023-02-13T04:14:57.532Z,102205.39
2023-02-13T04:17:31.480Z,102207.61
2023-02-13T04:19:59.804Z,102200.73
2023-02-13T04:22:27.445Z,102199.60
2023-02-13T04:24:55.102Z,102194.89
2023-02-13T04:27:25.707Z,102193.22
2023-02-13T04:29:53.344Z,102194.77
2023-02-13T04:32:20.995Z,102194.88
2023-02-13T04:34:48.686Z,102195.25
2023-02-13T04:37:16.410Z,102195.90
2023-02-13T04:39:44.377Z,102190.16
2023-02-13T04:42:12.065Z,102193.63
2023-02-13T04:44:39.683Z,102190.56
2023-02-13T04:47:07.329Z,102186.02
2023-02-13T04:49:35.601Z,102187.68
2023-02-13T04:52:03.572Z,102190.02
2023-02-13T04:54:31.211Z,102190.08
2023-02-13T04:56:59.133Z,102187.34
2023-02-13T04:59:26.796Z,102191.45
2023-02-13T05:01:54.545Z,102189.58
2023-02-13T05:04:22.365Z,102183.46
2023-02-13T05:06:50.011Z,102182.64
2023-02-13T05:09:17.667Z,102183.63
2023-02-13T05:11:45.341Z,102186.39
2023-02-13T05:14:13.039Z,102186.34
2023-02-13T05:16:40.710Z,102188.82
2023-02-13T05:19:08.588Z,102182.27
2023-02-13T05:21:55.073Z,102181.73
2023-02-13T05:24:22.855Z,102181.86
2023-02-13T05:26:50.493Z,102181.48
2023-02-13T05:29:22.492Z,102177.80
2023-02-13T05:31:52.215Z,102176.99
2023-02-13T05:34:21.723Z,102178.48
2023-02-13T05:36:49.782Z,102178.90
2023-02-13T05:39:17.820Z,102177.29
2023-02-13T05:41:46.440Z,102185.11
2023-02-13T05:44:14.723Z,102180.90
2023-02-13T05:46:43.120Z,102180.09
2023-02-13T05:49:12.193Z,102187.82
2023-02-13T05:51:40.015Z,102191.01
2023-02-13T05:54:08.415Z,102192.11
2023-02-13T05:56:36.400Z,102192.17
2023-02-13T05:59:04.724Z,102192.39
2023-02-13T06:01:32.648Z,102195.06
2023-02-13T06:04:03.420Z,102198.13
2023-02-13T06:06:31.667Z,102202.54
2023-02-13T06:08:59.491Z,102204.84
2023-02-13T06:11:27.263Z,102207.75
2023-02-13T06:13:55.253Z,102207.45
2023-02-13T06:16:23.325Z,102209.02
2023-02-13T06:18:51.334Z,102208.13
2023-02-13T06:21:19.263Z,102202.42
2023-02-13T06:23:47.068Z,102206.78
2023-02-13T06:26:15.068Z,102206.14
2023-02-13T06:28:42.861Z,102207.41
2023-02-13T06:31:10.731Z,102204.78
2023-02-13T06:33:38.512Z,102219.31
2023-02-13T06:36:07.057Z,102226.17
2023-02-13T06:38:34.938Z,102223.83
2023-02-13T06:41:02.692Z,102224.95
2023-02-13T06:43:30.950Z,102231.39
2023-02-13T06:45:59.163Z,102227.20
2023-02-13T06:48:26.837Z,102228.87
2023-02-13T06:50:54.665Z,102232.70
2023-02-13T06:53:24.980Z,102230.58
2023-02-13T06:55:53.744Z,102230.70
2023-02-13T06:58:22.986Z,102229.60
2023-02-13T07:00:52.381Z,102228.06
2023-02-13T07:03:20.377Z,102231.57
2023-02-13T07:05:48.124Z,102231.23
2023-02-13T07:08:15.768Z,102228.77
2023-02-13T07:10:43.636Z,102230.67
2023-02-13T07:13:11.330Z,102229.14
2023-02-13T07:15:39.096Z,102229.58
2023-02-13T07:18:07.038Z,102226.60
2023-02-13T07:20:34.821Z,102221.97
2023-02-13T07:23:04.420Z,102223.55
2023-02-13T07:25:32.414Z,102224.90
2023-02-13T07:28:04.836Z,102222.22
2023-02-13T07:30:33.790Z,102223.33
2023-02-13T07:33:05.208Z,102222.30
2023-02-13T07:35:33.264Z,102223.84
2023-02-13T07:38:01.044Z,102224.66
2023-02-13T07:40:28.852Z,102226.65
2023-02-13T07:42:56.734Z,102221.89
2023-02-13T07:45:24.480Z,102226.08
2023-02-13T07:47:55.381Z,102223.73
2023-02-13T07:50:23.551Z,102227.16
2023-02-13T07:52:58.758Z,102226.66
2023-02-13T07:55:27.514Z,102224.59
2023-02-13T07:57:56.078Z,102224.64
2023-02-13T08:00:23.958Z,102225.91
2023-02-13T08:02:51.743Z,102226.61
2023-02-13T08:05:19.456Z,102227.29
2023-02-13T08:07:47.144Z,102228.95
2023-02-13T08:10:34.317Z,102232.02
2023-02-13T08:13:02.122Z,102233.25
2023-02-13T08:15:30.114Z,102229.49
2023-02-13T08:17:57.825Z,102227.65
2023-02-13T08:20:25.710Z,102229.02
2023-02-13T08:22:53.378Z,102236.74
2023-02-13T08:25:21.117Z,102233.84
2023-02-13T08:27:48.873Z,102231.88
2023-02-13T08:30:16.720Z,102237.05
2023-02-13T08:32:54.003Z,102242.24
2023-02-13T08:35:26.829Z,102248.34
2023-02-13T08:37:54.620Z,102254.83
2023-02-13T08:40:24.423Z,102260.74
2023-02-13T08:42:59.703Z,102262.08
2023-02-13T08:45:27.589Z,102268.55
2023-02-13T08:47:57.206Z,102273.35
2023-02-13T08:50:25.917Z,102274.60
2023-02-13T08:52:54.070Z,102273.84
2023-02-13T08:55:22.304Z,102268.99
2023-02-13T08:57:49.975Z,102271.80
2023-02-13T14:02:40.774Z,102186.33
2023-02-13T14:05:31.286Z,102191.02
2023-02-13T14:08:04.417Z,102186.35
2023-02-13T14:10:32.085Z,102181.34
2023-02-13T14:13:02.620Z,102185.29
2023-02-13T14:15:37.562Z,102183.87
2023-02-13T14:18:14.066Z,102179.55
2023-02-13T14:20:50.351Z,102175.00
2023-02-13T14:23:53.068Z,102168.55
2023-02-13T14:26:38.589Z,102168.70
2023-02-13T14:29:12.117Z,102169.64
2023-02-13T14:31:44.476Z,102168.68
2023-02-13T14:34:12.131Z,102168.56
2023-02-13T14:36:43.026Z,102166.97
2023-02-13T14:39:20.349Z,102160.44
2023-02-13T14:41:51.074Z,102158.39
2023-02-13T14:44:20.945Z,102164.48
2023-02-13T14:46:49.730Z,102160.19
2023-02-13T14:49:21.038Z,102153.54
2023-02-13T14:51:54.618Z,102142.77
2023-02-13T14:54:28.867Z,102134.80
2023-02-13T14:57:26.939Z,102124.92
2023-02-13T15:00:06.037Z,102130.39
2023-02-13T15:02:36.686Z,102131.52
2023-02-13T15:05:13.686Z,102131.15
2023-02-13T15:07:53.523Z,102126.98
2023-02-13T15:10:49.523Z,102130.20
2023-02-13T15:13:33.273Z,102128.17
2023-02-13T15:16:04.328Z,102128.37
2023-02-13T15:18:39.224Z,102122.42
2023-02-13T15:21:16.364Z,102121.23
2023-02-13T15:23:44.525Z,102123.56
2023-02-13T15:26:19.761Z,102119.85
2023-02-13T15:29:35.254Z,102122.17
2023-02-13T15:32:20.387Z,102121.92
2023-02-13T15:34:48.856Z,102119.84
2023-02-13T15:37:24.861Z,102116.20
2023-02-13T15:39:52.711Z,102112.50
2023-02-13T15:42:20.898Z,102110.21
2023-02-13T15:44:51.408Z,102106.23
2023-02-13T15:47:28.741Z,102108.05
2023-02-13T15:49:56.697Z,102107.95
2023-02-13T15:52:32.709Z,102107.73
2023-02-13T15:55:01.064Z,102101.14
2023-02-13T15:57:29.244Z,102103.27
2023-02-13T15:59:58.215Z,102095.26
2023-02-13T16:02:41.678Z,102097.56
2023-02-13T16:05:12.057Z,102103.46
2023-02-13T16:07:51.033Z,102101.54
2023-02-13T16:10:26.580Z,102097.15
2023-02-13T16:12:56.040Z,102091.60
2023-02-13T16:15:27.865Z,102100.84
2023-02-13T16:17:56.095Z,102107.23
2023-02-13T16:20:26.311Z,102111.97
2023-02-13T16:23:23.419Z,102110.63
2023-02-13T16:25:51.212Z,102108.14
2023-02-13T16:28:22.054Z,102103.75
2023-02-13T16:31:00.636Z,102092.64
2023-02-13T16:33:30.503Z,102096.42
2023-02-13T16:36:00.231Z,102100.23
2023-02-13T16:38:34.704Z,102107.66
2023-02-13T16:41:18.724Z,102107.86
2023-02-13T16:44:03.361Z,102102.16
2023-02-13T16:46:36.541Z,102107.77
2023-02-13T16:49:06.851Z,102109.14
2023-02-13T16:51:41.275Z,102112.30
2023-02-13T16:54:26.166Z,102108.34
2023-02-13T16:56:58.827Z,102105.85
2023-02-13T16:59:38.406Z,102105.98
2023-02-13T17:02:30.123Z,102104.27
2023-02-13T17:05:10.284Z,102113.61
2023-02-13T17:07:39.768Z,102107.33
2023-02-13T17:10:18.904Z,102106.86
2023-02-13T17:12:47.546Z,102095.69
2023-02-13T17:15:19.096Z,102086.55
2023-02-13T17:17:48.272Z,102089.63
2023-02-13T17:20:45.465Z,102090.61
2023-02-13T17:23:18.508Z,102093.14
2023-02-13T17:25:48.061Z,102091.29
2023-02-13T17:28:24.923Z,102090.27
2023-02-13T17:30:54.446Z,102082.64
2023-02-13T17:33:24.419Z,102082.88
2023-02-13T17:35:52.801Z,102082.98
2023-02-13T17:38:20.783Z,102080.92
2023-02-13T17:40:48.695Z,102078.98
2023-02-13T17:43:18.191Z,102079.38
2023-02-13T17:45:46.870Z,102082.69
2023-02-13T17:48:14.666Z,102083.05
2023-02-13T17:50:42.532Z,102088.02
2023-02-13T17:53:32.744Z,102094.06
2023-02-13T17:56:00.566Z,102096.60
2023-02-13T17:58:28.225Z,102105.08
2023-02-13T18:00:56.279Z,102106.27
2023-02-13T18:03:24.245Z,102108.52
2023-02-13T18:05:52.054Z,102106.31
2023-02-13T18:08:20.211Z,102094.85
2023-02-13T18:44:29.182Z,102100.53
2023-02-13T18:47:01.730Z,102087.17
2023-02-13T18:49:33.319Z,102084.42
2023-02-13T18:52:12.109Z,102088.67
2023-02-13T18:54:47.036Z,102090.88
2023-02-13T18:57:22.526Z,102092.98
2023-02-13T19:01:12.135Z,102093.98
2023-02-13T19:03:56.702Z,102099.35
2023-02-13T19:06:52.989Z,102096.67
2023-02-13T19:10:15.850Z,102110.66
2023-02-13T19:13:10.992Z,102107.61
2023-02-13T19:15:53.245Z,102110.45
2023-02-13T19:19:03.221Z,102113.75
2023-02-13T19:21:34.280Z,102112.77
2023-02-13T19:25:02.109Z,102118.52
2023-02-13T19:28:27.018Z,102118.78
2023-02-13T19:32:11.889Z,102124.46
2023-02-13T19:36:26.773Z,102127.78
2023-02-13T19:39:54.257Z,102132.50
2023-02-13T19:44:02.219Z,102137.83
2023-02-13T20:01:46.447Z,102147.64
2023-02-13T20:05:11.484Z,102149.59
2023-02-13T20:08:14.487Z,102149.86
2023-02-13T20:12:12.850Z,102147.86
2023-02-13T20:16:58.293Z,102161.35
2023-02-13T20:20:50.622Z,102161.66
2023-02-13T20:24:08.122Z,102165.61
2023-02-13T20:26:35.826Z,102169.70
2023-02-13T20:29:04.164Z,102171.91
2023-02-13T20:31:34.394Z,102175.92
2023-02-13T20:34:02.763Z,102181.54
2023-02-13T20:36:31.580Z,102178.49
2023-02-13T20:39:02.078Z,102184.96
2023-02-13T20:41:31.841Z,102188.75
2023-02-13T20:44:02.253Z,102193.01
2023-02-13T20:46:34.646Z,102193.73
2023-02-13T20:49:02.238Z,102192.30
2023-02-13T20:51:30.028Z,102195.60
2023-02-13T20:53:59.079Z,102201.30
2023-02-13T20:56:28.407Z,102199.73
2023-02-13T20:58:58.222Z,102204.67
2023-02-13T21:01:27.575Z,102207.08
2023-02-13T21:03:56.205Z,102211.17
2023-02-13T21:06:35.275Z,102215.20
2023-02-13T21:09:07.024Z,102220.73
2023-02-13T21:11:35.703Z,102219.64
2023-02-13T21:14:04.007Z,102220.48
2023-02-13T21:16:37.175Z,102217.38
2023-02-13T21:19:07.881Z,102218.45
2023-02-13T21:21:37.134Z,102220.48
2023-02-13T21:24:08.180Z,102222.02
2023-02-13T21:26:39.642Z,102225.36
2023-02-13T21:29:08.325Z,102224.31
2023-02-13T21:31:40.447Z,102223.08
2023-02-13T21:34:08.764Z,102226.86
2023-02-13T21:36:37.222Z,102226.60
2023-02-13T21:39:09.116Z,102224.42
2023-02-13T21:41:39.886Z,102224.85
2023-02-13T21:44:07.670Z,102225.79
2023-02-13T21:46:35.497Z,102226.39
2023-02-13T21:49:04.828Z,102224.89
2023-02-13T21:51:35.016Z,102224.39
2023-02-13T21:54:04.246Z,102229.83
2023-02-13T21:56:34.994Z,102227.06
2023-02-13T21:59:03.363Z,102228.38
2023-02-13T22:01:46.618Z,102232.38
2023-02-13T22:04:14.676Z,102229.52
2023-02-13T22:06:42.960Z,102231.22
2023-02-13T22:09:13.392Z,102227.73
2023-02-13T22:11:41.756Z,102236.88
2023-02-13T22:14:16.999Z,102237.52
2023-02-13T22:16:45.923Z,102244.66
2023-02-13T22:19:15.967Z,102242.66
2023-02-13T22:21:44.361Z,102241.73
2023-02-13T22:24:12.142Z,102242.79
2023-02-13T22:26:42.059Z,102241.67
2023-02-13T22:29:11.837Z,102246.73
2023-02-13T22:31:39.746Z,102246.65
2023-02-13T22:34:07.768Z,102249.23
2023-02-13T22:36:40.100Z,102247.29
2023-02-13T22:39:09.771Z,102244.74
2023-02-13T22:41:37.994Z,102247.73
2023-02-13T22:44:06.026Z,102246.12
2023-02-13T22:46:34.337Z,102243.40
2023-02-13T22:49:02.227Z,102240.98
2023-02-13T22:51:33.188Z,102245.64
2023-02-13T22:54:01.513Z,102245.48
2023-02-13T22:56:29.897Z,102244.42
2023-02-13T22:58:58.068Z,102239.15
2023-02-13T23:01:26.955Z,102235.73
2023-02-13T23:03:55.577Z,102235.17
2023-02-13T23:06:24.530Z,102229.10
2023-02-13T23:08:54.065Z,102232.19
2023-02-13T23:11:44.876Z,102234.48
2023-02-13T23:14:13.122Z,102238.67
2023-02-13T23:17:00.710Z,102234.09
2023-02-13T23:19:29.890Z,102235.02
2023-02-13T23:21:58.833Z,102231.98
2023-02-13T23:24:26.759Z,102229.09
2023-02-13T23:26:54.487Z,102228.33
2023-02-13T23:29:22.457Z,102227.05
2023-02-13T23:31:50.514Z,102226.08
2023-02-13T23:34:18.611Z,102227.64
2023-02-13T23:36:46.455Z,102226.87
2023-02-13T23:39:14.215Z,102224.96
2023-02-13T23:41:42.034Z,102223.36
2023-02-13T23:44:09.698Z,102225.75
2023-02-13T23:46:37.437Z,102228.36
2023-02-13T23:49:07.415Z,102227.86
2023-02-13T23:51:35.367Z,102229.64
2023-02-13T23:54:03.254Z,102230.27
2023-02-13T23:56:31.114Z,102229.92
2023-02-13T23:58:58.969Z,102233.92
